Disclaimer

Please do not use the information listed here in-flight or in-navigation, as they are not provided to us by the airports but are provided by volunteers, so they might be outdated.

Search


Regions


Airport information page

No radio frequency information is available.

Airport informations:
Latitude: 51° 39' 23.00" N
Longitude: 005° 42' 31.00" E
Elevation: 72 feet - 22 meters
Operating hours: Remarks
Operating agency: Military
Timezone: UTC+1(+2DT) - Last Sunday in March to last Sunday in October
Fuel: N/A

Runway information:
06R/24L - 9931 x 74 feet< - >3027 x 23 meters
06L/24R - 9922 x 148 feet< - >3024 x 45 meters

Recent METARs:
EHVK 180925Z AUTO 06009KT 9999 NCD 02/M02 Q1030 BLU
EHVK 180955Z AUTO 06009KT 030V090 9999 NCD 02/M02 Q1030 BLU
EHVK 181025Z AUTO 06009KT 9999 OVC270 03/M02 Q1030 BLU

Airport on the map: